Time;durP1;ratioP1;P1;durP2;ratioP2;P2;SDS_P1;SDS_P2;PMS_P1;PMS_P2;Temp;Humidity;BMP_temperature;BMP_pressure;BME280_temperature;BME280_humidity;BME280_pressure;Samples;Min_cycle;Max_cycle;Signal;HPM_P1;HPM_P2
2023/09/25 00:02:12;;;;;;;5.85;3.90;;;;;;;13.14;77.88;101614.70;1666198;85;27303;-49
2023/09/25 00:04:39;;;;;;;4.87;3.90;;;;;;;13.15;77.95;101623.68;1662968;85;25631;-49
2023/09/25 00:07:05;;;;;;;6.10;3.65;;;;;;;13.15;78.07;101629.91;1672066;85;25560;-49
2023/09/25 00:09:31;;;;;;;7.55;4.28;;;;;;;13.16;78.06;101629.34;1669041;85;25411;-49
2023/09/25 00:11:57;;;;;;;6.00;3.87;;;;;;;13.16;78.19;101637.50;1673133;85;25478;-49
2023/09/25 00:14:23;;;;;;;6.03;4.00;;;;;;;13.17;78.13;101641.84;1668025;85;27338;-48
2023/09/25 00:16:51;;;;;;;4.40;3.60;;;;;;;13.16;78.31;101639.69;1673957;85;25651;-49
2023/09/25 00:19:17;;;;;;;6.20;3.80;;;;;;;13.18;78.38;101643.47;1661966;85;25574;-50
2023/09/25 00:21:44;;;;;;;5.72;4.20;;;;;;;13.18;78.43;101641.55;1674008;85;25653;-49
2023/09/25 00:24:10;;;;;;;6.35;3.87;;;;;;;13.18;78.59;101645.62;1665001;85;25622;-48
2023/09/25 00:26:36;;;;;;;5.05;3.60;;;;;;;13.19;78.69;101644.52;1661888;85;27909;-51
2023/09/25 00:29:03;;;;;;;5.67;3.72;;;;;;;13.23;78.60;101648.27;1666818;85;25434;-51
2023/09/25 00:31:30;;;;;;;6.35;3.70;;;;;;;13.24;78.70;101647.71;1675714;85;25415;-50
2023/09/25 00:33:58;;;;;;;6.12;4.10;;;;;;;13.24;78.71;101641.72;1656734;86;25912;-50
2023/09/25 00:36:24;;;;;;;7.47;4.12;;;;;;;13.24;78.69;101649.07;1656707;86;25488;-49
2023/09/25 00:38:50;;;;;;;9.23;3.50;;;;;;;13.25;78.61;101649.34;1642972;86;27283;-49
2023/09/25 00:41:16;;;;;;;4.22;3.17;;;;;;;13.25;78.67;101652.86;1656548;86;25686;-49
2023/09/25 00:43:42;;;;;;;6.08;3.95;;;;;;;13.26;78.62;101645.50;1668113;85;25640;-48
2023/09/25 00:46:08;;;;;;;4.62;3.62;;;;;;;13.27;78.63;101641.70;1657937;85;25546;-49
2023/09/25 00:48:35;;;;;;;8.68;3.80;;;;;;;13.28;78.73;101639.25;1683972;85;25469;-49
2023/09/25 00:51:04;;;;;;;5.53;3.95;;;;;;;13.29;78.74;101641.41;1683815;85;27376;-50
2023/09/25 00:53:34;;;;;;;5.37;3.87;;;;;;;13.27;78.66;101643.86;1635101;86;25723;-50
2023/09/25 00:56:02;;;;;;;6.92;4.15;;;;;;;13.26;78.55;101642.78;1667307;85;25422;-47
2023/09/25 00:58:28;;;;;;;5.55;3.60;;;;;;;13.25;78.59;101639.83;1683844;85;25469;-48
2023/09/25 01:00:55;;;;;;;4.65;3.83;;;;;;;13.22;78.64;101638.50;1663697;85;25731;-48
2023/09/25 01:03:22;;;;;;;5.35;3.30;;;;;;;13.22;78.86;101639.05;1667876;85;27344;-49
2023/09/25 01:05:49;;;;;;;6.28;3.77;;;;;;;13.21;78.88;101637.43;1664249;85;25981;-49
2023/09/25 01:08:15;;;;;;;7.50;3.35;;;;;;;13.22;78.98;101639.86;1661296;85;25611;-49
2023/09/25 01:10:44;;;;;;;7.58;3.95;;;;;;;13.23;78.90;101643.40;1683844;85;25648;-48
2023/09/25 01:13:11;;;;;;;6.42;4.00;;;;;;;13.21;78.92;101639.61;1684117;85;25703;-49
2023/09/25 01:15:38;;;;;;;4.95;3.80;;;;;;;13.21;78.97;101645.58;1686547;84;27333;-48
2023/09/25 01:18:05;;;;;;;4.62;3.25;;;;;;;13.20;78.91;101645.34;1686496;84;25451;-48
2023/09/25 01:20:32;;;;;;;5.10;3.37;;;;;;;13.18;78.98;101640.75;1662292;85;25520;-48
2023/09/25 01:22:58;;;;;;;5.00;3.50;;;;;;;13.17;79.14;101641.28;1665119;85;25677;-48
2023/09/25 01:25:25;;;;;;;4.37;3.70;;;;;;;13.16;79.15;101645.65;1661291;85;25586;-48
2023/09/25 01:27:51;;;;;;;6.37;3.40;;;;;;;13.14;79.03;101643.23;1665913;85;27319;-48
2023/09/25 01:30:19;;;;;;;7.75;3.37;;;;;;;13.15;79.10;101642.70;1645047;85;25898;-49
2023/09/25 01:32:49;;;;;;;6.47;3.37;;;;;;;13.14;79.12;101641.87;1674005;85;25479;-49
2023/09/25 01:35:22;;;;;;;5.40;3.80;;;;;;;13.13;79.27;101644.88;1673974;85;25549;-49
2023/09/25 01:37:49;;;;;;;6.30;3.72;;;;;;;13.13;79.29;101646.23;1674063;85;25632;-49
2023/09/25 01:40:17;;;;;;;5.62;4.30;;;;;;;13.11;79.39;101647.91;1674046;85;27385;-49
2023/09/25 01:42:46;;;;;;;4.87;3.17;;;;;;;13.10;79.33;101638.69;1674174;85;25658;-49
2023/09/25 01:45:16;;;;;;;6.62;3.42;;;;;;;13.08;79.40;101642.50;1676647;85;25576;-49
2023/09/25 01:47:50;;;;;;;6.47;3.35;;;;;;;13.07;79.48;101640.87;1681079;85;25884;-49
2023/09/25 01:50:25;;;;;;;6.17;3.50;;;;;;;13.06;79.47;101651.49;1681168;84;25456;-48
2023/09/25 01:52:56;;;;;;;7.33;3.70;;;;;;;13.04;79.49;101646.91;1681199;84;27913;-49
2023/09/25 01:55:25;;;;;;;7.70;3.83;;;;;;;13.03;79.53;101645.84;1680008;85;25490;-48
2023/09/25 01:57:51;;;;;;;4.83;3.25;;;;;;;13.02;79.61;101644.22;1681045;85;25478;-49
2023/09/25 02:00:18;;;;;;;4.45;3.55;;;;;;;13.01;79.65;101646.69;1681269;84;25894;-48
2023/09/25 02:02:47;;;;;;;5.95;3.40;;;;;;;12.99;79.67;101649.70;1681310;84;25479;-49
2023/09/25 02:05:13;;;;;;;7.10;3.42;;;;;;;12.98;79.49;101645.35;1681269;85;27430;-48
2023/09/25 02:07:40;;;;;;;7.28;3.50;;;;;;;12.96;79.53;101644.84;1681168;85;27134;-50
2023/09/25 02:10:10;;;;;;;5.37;3.22;;;;;;;12.94;79.56;101651.66;1681316;84;25483;-49
2023/09/25 02:12:37;;;;;;;6.87;3.65;;;;;;;12.92;79.63;101649.22;1656034;85;25584;-49
2023/09/25 02:15:07;;;;;;;5.55;3.33;;;;;;;12.89;79.67;101643.84;1681325;85;25592;-49
2023/09/25 02:17:34;;;;;;;;;;;;;;;12.86;79.70;101645.77;1683772;85;27333;-49
2023/09/25 02:22:41;;;;;;;7.85;4.17;;;;;;;12.81;79.91;101644.48;1596667;89;25472;-48
2023/09/25 02:25:09;;;;;;;5.22;3.52;;;;;;;12.77;79.80;101639.91;1596599;89;25709;-49
2023/09/25 02:27:39;;;;;;;5.00;3.30;;;;;;;12.76;79.85;101647.82;1596791;89;25607;-51
2023/09/25 02:30:07;;;;;;;;;;;;;;;12.71;79.72;101641.34;1578198;89;27825;-51
2023/09/25 02:32:34;;;;;;;8.35;3.95;;;;;;;12.69;80.09;101638.67;1590122;89;25503;-49
2023/09/25 02:35:01;;;;;;;4.55;3.77;;;;;;;12.65;79.91;101636.26;1589571;90;25681;-49
2023/09/25 02:37:33;;;;;;;4.80;3.70;;;;;;;12.62;80.29;101636.86;1589545;90;27480;-48
2023/09/25 02:39:59;;;;;;;3.95;3.55;;;;;;;12.58;80.21;101636.64;1589660;90;25669;-51
2023/09/25 02:42:26;;;;;;;5.70;3.70;;;;;;;12.56;80.25;101634.73;1589581;90;27571;-48
2023/09/25 02:44:53;;;;;;;4.33;3.27;;;;;;;12.54;80.25;101638.85;1589563;90;25666;-48
2023/09/25 02:47:19;;;;;;;5.40;3.05;;;;;;;12.51;80.46;101647.84;1589631;90;25545;-52
2023/09/25 02:49:45;;;;;;;5.00;3.70;;;;;;;12.50;80.64;101644.05;1589653;90;25559;-51
2023/09/25 02:52:11;;;;;;;5.15;3.50;;;;;;;12.48;80.56;101651.66;1568933;90;25621;-48
2023/09/25 02:54:38;;;;;;;5.15;3.27;;;;;;;12.46;80.72;101652.49;1589567;90;27558;-49
2023/09/25 02:57:04;;;;;;;7.00;3.35;;;;;;;12.43;80.80;101660.67;1589487;90;26077;-51
2023/09/25 02:59:31;;;;;;;5.15;3.58;;;;;;;12.40;80.77;101655.02;1628711;85;25636;-48
2023/09/25 03:01:57;;;;;;;5.92;4.00;;;;;;;12.37;81.06;101653.67;1666919;85;25655;-48
2023/09/25 03:04:23;;;;;;;7.10;3.72;;;;;;;12.35;81.17;101646.38;1667008;85;25425;-48
2023/09/25 03:06:50;;;;;;;4.97;3.35;;;;;;;12.32;80.90;101639.61;1659922;85;27337;-48
2023/09/25 03:09:17;;;;;;;6.00;3.77;;;;;;;12.32;81.05;101636.09;1653393;85;25566;-52
2023/09/25 03:11:43;;;;;;;5.17;3.67;;;;;;;12.29;81.22;101632.07;1670199;85;25556;-49
2023/09/25 03:14:09;;;;;;;5.53;4.22;;;;;;;12.28;81.33;101637.78;1652470;85;25497;-49
2023/09/25 03:16:35;;;;;;;5.75;3.77;;;;;;;12.24;81.55;101639.43;1662032;85;25461;-50
2023/09/25 03:19:01;;;;;;;5.42;4.20;;;;;;;12.20;81.58;101636.48;1664054;85;27323;-50
2023/09/25 03:21:29;;;;;;;6.78;4.20;;;;;;;12.16;81.62;101640.88;1643730;85;25629;-49
2023/09/25 03:23:55;;;;;;;10.60;4.72;;;;;;;12.13;81.84;101640.89;1663959;85;25580;-49
2023/09/25 03:26:21;;;;;;;7.17;4.58;;;;;;;12.10;81.86;101645.53;1646642;86;26146;-48
2023/09/25 03:28:49;;;;;;;7.67;3.87;;;;;;;12.08;82.02;101641.50;1657245;86;25579;-49
2023/09/25 03:31:16;;;;;;;5.50;3.65;;;;;;;12.03;82.08;101645.62;1651763;84;26833;-49
2023/09/25 03:33:46;;;;;;;7.55;4.25;;;;;;;12.00;82.08;101646.98;1693303;84;25587;-49
2023/09/25 03:36:13;;;;;;;5.00;4.22;;;;;;;11.99;82.18;101650.80;1693363;84;25618;-49
2023/09/25 03:38:40;;;;;;;19.35;4.70;;;;;;;11.95;82.54;101645.14;1693313;84;25575;-48
2023/09/25 03:41:06;;;;;;;6.95;4.30;;;;;;;11.93;82.58;101643.24;1693368;84;25504;-49
2023/09/25 03:43:33;;;;;;;5.80;3.85;;;;;;;11.90;82.84;101645.69;1693376;84;27249;-49
2023/09/25 03:46:02;;;;;;;6.53;4.03;;;;;;;11.86;82.88;101650.87;1693272;84;25632;-49
2023/09/25 03:48:28;;;;;;;6.00;4.55;;;;;;;11.83;83.11;101651.44;1693297;84;25395;-49
2023/09/25 03:50:55;;;;;;;7.75;4.17;;;;;;;11.81;83.30;101650.11;1693327;84;25493;-49
2023/09/25 03:53:21;;;;;;;5.00;4.00;;;;;;;11.80;83.49;101655.27;1693333;84;25614;-49
2023/09/25 03:55:47;;;;;;;4.92;4.20;;;;;;;11.77;83.65;101664.23;1693416;84;27445;-51
2023/09/25 03:58:14;;;;;;;4.42;4.03;;;;;;;11.76;83.93;101661.80;1693228;84;25392;-49
2023/09/25 04:00:41;;;;;;;6.53;4.40;;;;;;;11.76;83.97;101659.09;1693348;84;25473;-49
2023/09/25 04:03:08;;;;;;;5.60;4.30;;;;;;;11.75;83.98;101662.91;1693300;84;25416;-50
2023/09/25 04:05:35;;;;;;;5.33;3.52;;;;;;;11.76;84.22;101665.87;1693354;84;25485;-51
2023/09/25 04:08:01;;;;;;;5.97;4.37;;;;;;;11.75;84.16;101679.97;1693269;84;27328;-49
2023/09/25 04:10:28;;;;;;;5.85;4.30;;;;;;;11.74;84.22;101687.83;1671319;84;25605;-49
2023/09/25 04:12:55;;;;;;;7.50;4.12;;;;;;;11.75;84.57;101696.80;1693335;84;25554;-49
2023/09/25 04:15:26;;;;;;;6.55;4.05;;;;;;;11.75;84.59;101698.95;1693296;84;25474;-48
2023/09/25 04:17:53;;;;;;;6.83;4.28;;;;;;;11.76;84.69;101697.04;1693343;84;25554;-49
2023/09/25 04:20:24;;;;;;;6.42;4.05;;;;;;;11.78;84.86;101693.49;1693321;84;27336;-48
2023/09/25 04:22:48;;;;;;;7.03;4.83;;;;;;;11.77;84.77;101687.27;1693056;84;25484;-49
2023/09/25 04:25:19;;;;;;;4.80;4.30;;;;;;;11.76;84.85;101683.48;1693377;84;25651;-49
2023/09/25 04:27:45;;;;;;;;;;;;;;;11.76;84.84;101676.70;1695734;84;25404;-48
2023/09/25 04:30:15;;;;;;;4.80;3.90;;;;;;;11.76;85.12;101679.42;1693415;84;25414;-49
2023/09/25 04:32:47;;;;;;;7.12;4.87;;;;;;;11.76;85.07;101683.48;1687328;84;27428;-50
2023/09/25 04:35:17;;;;;;;4.95;3.90;;;;;;;11.74;85.29;101690.55;1684567;85;25814;-52
2023/09/25 04:37:44;;;;;;;4.33;3.85;;;;;;;11.76;85.34;101691.62;1684834;85;25598;-50
2023/09/25 04:42:43;;;;;;;5.78;3.92;;;;;;;11.76;85.35;101692.97;1684924;85;25518;-48
2023/09/25 04:45:13;;;;;;;5.42;4.03;;;;;;;11.76;85.57;101701.11;1684840;85;27307;-48
2023/09/25 04:47:43;;;;;;;5.35;4.17;;;;;;;11.77;85.49;101704.09;1684859;85;25537;-48
2023/09/25 04:50:10;;;;;;;5.10;4.12;;;;;;;11.78;85.64;101702.98;1684821;85;25427;-49
2023/09/25 04:52:40;;;;;;;5.65;4.67;;;;;;;11.80;85.69;101706.24;1684852;85;25407;-50
2023/09/25 04:55:10;;;;;;;5.47;4.05;;;;;;;11.82;85.73;101709.48;1684981;85;25501;-50
2023/09/25 04:57:44;;;;;;;7.50;3.98;;;;;;;11.84;85.98;101714.06;1681850;84;27318;-50
2023/09/25 05:00:26;;;;;;;8.33;4.28;;;;;;;11.86;86.08;101709.16;1707058;84;25470;-50
2023/09/25 05:02:56;;;;;;;5.08;4.12;;;;;;;11.87;86.14;101714.86;1687420;84;25415;-49
2023/09/25 05:05:24;;;;;;;4.43;4.03;;;;;;;11.89;86.05;101717.29;1707368;84;25462;-50
2023/09/25 05:07:53;;;;;;;6.17;4.53;;;;;;;11.91;86.14;101721.91;1707142;84;25711;-49
2023/09/25 05:10:25;;;;;;;6.92;4.28;;;;;;;11.94;86.48;101716.72;1685254;84;28048;-51
2023/09/25 05:12:54;;;;;;;7.67;4.70;;;;;;;11.98;86.48;101714.25;1707066;84;25739;-49
2023/09/25 05:15:22;;;;;;;9.00;4.58;;;;;;;12.02;86.73;101707.19;1707148;84;25415;-50
2023/09/25 05:17:49;;;;;;;6.72;4.80;;;;;;;12.07;86.69;101709.86;1707102;84;25667;-50
2023/09/25 05:20:24;;;;;;;4.90;4.37;;;;;;;12.12;86.94;101698.96;1707153;84;25572;-51
2023/09/25 05:22:55;;;;;;;7.97;4.90;;;;;;;12.17;86.81;101702.16;1707198;84;28263;-48
2023/09/25 05:25:24;;;;;;;6.20;4.72;;;;;;;12.22;86.79;101693.97;1707111;84;25624;-49
2023/09/25 05:27:55;;;;;;;6.90;5.05;;;;;;;12.28;86.85;101696.11;1707313;84;25392;-50
2023/09/25 05:30:21;;;;;;;6.37;4.35;;;;;;;12.30;86.77;101696.06;1707150;84;25619;-53
2023/09/25 05:32:50;;;;;;;7.70;4.80;;;;;;;12.39;86.78;101704.95;1688065;84;25410;-52
2023/09/25 05:35:19;;;;;;;8.88;4.90;;;;;;;12.43;86.78;101703.27;1678757;85;28016;-51
2023/09/25 05:37:48;;;;;;;7.87;4.30;;;;;;;12.50;86.84;101705.91;1685086;85;25388;-48
2023/09/25 05:40:17;;;;;;;6.58;4.33;;;;;;;12.57;86.97;101704.77;1721311;83;25576;-48
2023/09/25 05:42:47;;;;;;;7.83;4.53;;;;;;;12.60;86.62;101701.46;1699721;83;25875;-49
2023/09/25 05:45:16;;;;;;;7.28;4.33;;;;;;;12.67;86.78;101692.45;1697022;84;25657;-48
2023/09/25 05:47:44;;;;;;;5.12;4.10;;;;;;;12.76;86.83;101695.33;1705454;84;27379;-49
2023/09/25 05:50:12;;;;;;;6.55;3.90;;;;;;;12.81;86.56;101691.20;1705286;84;25617;-51
2023/09/25 05:52:41;;;;;;;8.13;3.60;;;;;;;12.91;86.80;101691.63;1698311;84;25644;-50
2023/09/25 05:55:10;;;;;;;4.17;3.47;;;;;;;12.99;86.75;101690.44;1704498;84;25564;-50
2023/09/25 05:57:38;;;;;;;6.42;3.67;;;;;;;13.06;86.60;101694.16;1698528;84;25718;-50
2023/09/25 06:00:12;;;;;;;5.33;3.60;;;;;;;13.14;86.54;101697.55;1686196;84;27153;-50
2023/09/25 06:02:41;;;;;;;5.25;3.27;;;;;;;13.21;86.49;101694.48;1702452;84;25403;-50
2023/09/25 06:05:14;;;;;;;4.12;3.25;;;;;;;13.29;86.24;101695.75;1705492;84;25458;-50
2023/09/25 06:07:42;;;;;;;8.70;3.12;;;;;;;13.37;86.40;101693.21;1683389;84;25427;-51
2023/09/25 06:10:11;;;;;;;4.95;3.47;;;;;;;13.47;86.56;101689.55;1697066;84;25397;-50
2023/09/25 06:12:39;;;;;;;5.42;3.70;;;;;;;13.61;87.18;101696.41;1705357;84;27349;-50
2023/09/25 06:15:11;;;;;;;4.92;2.83;;;;;;;13.77;87.51;101692.89;1705274;84;25843;-50
2023/09/25 06:17:40;;;;;;;8.78;3.12;;;;;;;13.89;87.00;101690.51;1705400;84;25472;-54
2023/09/25 06:20:15;;;;;;;5.10;2.85;;;;;;;14.07;87.21;101689.42;1704310;84;25511;-50
2023/09/25 06:22:44;;;;;;;5.10;2.77;;;;;;;14.25;87.12;101690.45;1693739;84;25659;-52
2023/09/25 06:25:11;;;;;;;4.03;2.45;;;;;;;14.44;86.96;101692.56;1703376;84;27824;-52
2023/09/25 06:27:39;;;;;;;3.77;2.70;;;;;;;14.63;86.62;101695.79;1696990;84;25392;-52
2023/09/25 06:30:09;;;;;;;4.50;2.33;;;;;;;14.80;86.47;101689.73;1705384;84;25588;-50
2023/09/25 06:32:35;;;;;;;4.50;2.33;;;;;;;15.00;86.00;101693.94;1674367;85;25490;-51
2023/09/25 06:35:01;;;;;;;4.47;2.85;;;;;;;15.23;85.65;101698.91;1675564;84;25618;-52
2023/09/25 06:37:29;;;;;;;4.80;2.45;;;;;;;15.44;85.10;101708.25;1676308;84;27689;-51
2023/09/25 06:39:56;;;;;;;5.87;2.67;;;;;;;15.67;85.24;101706.34;1683071;85;25552;-50
2023/09/25 06:42:23;;;;;;;5.22;2.15;;;;;;;15.96;85.25;101713.33;1677984;85;25556;-50
2023/09/25 06:44:49;;;;;;;5.05;2.37;;;;;;;16.25;84.67;101717.52;1685623;85;25618;-51
2023/09/25 06:47:15;;;;;;;7.20;2.30;;;;;;;16.48;83.46;101722.38;1681910;84;25506;-53
2023/09/25 06:49:42;;;;;;;5.05;1.85;;;;;;;16.75;82.85;101715.08;1676526;85;27315;-50
2023/09/25 06:52:08;;;;;;;2.47;1.90;;;;;;;17.02;81.66;101716.00;1683880;84;25467;-50
2023/09/25 06:54:34;;;;;;;4.47;1.82;;;;;;;17.25;81.53;101713.40;1685680;83;25451;-50
2023/09/25 06:57:00;;;;;;;2.60;1.65;;;;;;;17.57;81.35;101722.28;1678967;84;27514;-50
2023/09/25 06:59:27;;;;;;;3.35;1.72;;;;;;;17.86;80.36;101719.42;1676593;85;25573;-52
2023/09/25 07:01:54;;;;;;;4.65;1.92;;;;;;;18.14;79.40;101711.69;1668955;85;27340;-50
2023/09/25 07:04:21;;;;;;;10.58;8.35;;;;;;;18.37;78.04;101708.16;1666937;85;25622;-51
2023/09/25 07:06:47;;;;;;;6.03;3.47;;;;;;;18.61;77.25;101713.61;1674141;85;25482;-50
2023/09/25 07:09:14;;;;;;;3.30;2.00;;;;;;;18.82;76.31;101706.84;1666941;85;26121;-50
2023/09/25 07:11:42;;;;;;;3.77;1.90;;;;;;;19.11;75.85;101707.41;1666970;85;25635;-52
2023/09/25 07:14:08;;;;;;;3.47;1.80;;;;;;;19.38;75.29;101703.34;1674151;85;27336;-50
2023/09/25 07:16:35;;;;;;;1.72;1.25;;;;;;;19.64;73.66;101711.93;1666893;85;25479;-52
2023/09/25 07:19:01;;;;;;;1.85;1.00;;;;;;;19.87;72.70;101715.70;1669257;85;25588;-51
2023/09/25 07:21:27;;;;;;;3.75;1.60;;;;;;;20.13;72.11;101723.12;1664719;85;25566;-53
2023/09/25 07:23:54;;;;;;;2.87;1.30;;;;;;;20.39;71.49;101728.09;1651388;85;25480;-54
2023/09/25 07:26:20;;;;;;;3.98;1.42;;;;;;;20.73;71.48;101721.98;1644822;86;27232;-52
2023/09/25 07:28:47;;;;;;;3.50;1.25;;;;;;;21.10;70.94;101724.70;1659619;85;27212;-54
2023/09/25 07:31:26;;;;;;;4.72;1.15;;;;;;;21.50;70.03;101724.73;1666978;85;25446;-51
2023/09/25 07:33:55;;;;;;;3.08;1.10;;;;;;;21.88;68.52;101729.52;1671185;84;25902;-53
2023/09/25 07:36:24;;;;;;;2.40;1.37;;;;;;;22.17;66.69;101726.98;1672322;84;25399;-52
2023/09/25 07:38:50;;;;;;;2.80;1.37;;;;;;;22.46;66.40;101730.47;1671625;85;27345;-55
2023/09/25 07:41:18;;;;;;;3.42;1.37;;;;;;;22.80;65.43;101724.83;1669714;85;27187;-55
2023/09/25 07:43:48;;;;;;;4.12;1.52;;;;;;;23.12;65.12;101722.01;1666947;85;25540;-52
2023/09/25 07:46:13;;;;;;;2.80;1.37;;;;;;;23.47;63.42;101726.13;1674159;85;25487;-53
2023/09/25 07:48:39;;;;;;;4.12;1.20;;;;;;;23.67;61.42;101722.78;1674060;85;25626;-51
2023/09/25 07:51:07;;;;;;;2.90;1.10;;;;;;;23.95;61.36;101726.50;1674122;85;27327;-55
2023/09/25 07:53:36;;;;;;;2.25;1.30;;;;;;;24.29;60.43;101725.33;1674035;85;25572;-52
2023/09/25 07:56:05;;;;;;;1.47;0.80;;;;;;;24.59;59.21;101731.79;1662291;85;25573;-53
2023/09/25 07:58:32;;;;;;;;;;;;;;;24.77;57.89;101734.03;1676575;85;25447;-54
2023/09/25 08:01:07;;;;;;;1.75;0.93;;;;;;;24.95;56.50;101728.78;1674181;84;25654;-55
2023/09/25 08:03:30;;;;;;;1.85;0.80;;;;;;;25.06;56.14;101723.39;1673337;85;27328;-55
2023/09/25 08:05:57;;;;;;;1.37;0.90;;;;;;;25.09;53.97;101722.64;1673991;85;25250;-52
2023/09/25 08:08:24;;;;;;;1.10;1.00;;;;;;;25.03;53.83;101714.44;1668653;85;25458;-51
2023/09/25 08:10:50;;;;;;;3.10;1.27;;;;;;;25.25;54.35;101714.97;1672470;85;25621;-53
2023/09/25 08:13:18;;;;;;;4.25;1.17;;;;;;;25.51;52.94;101712.73;1669926;84;25448;-52
2023/09/25 08:15:44;;;;;;;2.98;0.90;;;;;;;25.72;53.11;101713.56;1664400;85;27427;-52
2023/09/25 08:18:11;;;;;;;2.47;1.12;;;;;;;25.90;52.05;101712.38;1666836;85;25586;-53
2023/09/25 08:20:39;;;;;;;6.90;1.35;;;;;;;26.08;50.89;101704.28;1660504;85;25451;-51
2023/09/25 08:23:07;;;;;;;5.30;1.60;;;;;;;26.25;50.90;101700.05;1659751;85;25658;-55
2023/09/25 08:25:34;;;;;;;3.10;1.07;;;;;;;26.38;50.16;101704.72;1674348;85;25449;-54
2023/09/25 08:28:00;;;;;;;2.37;1.20;;;;;;;26.56;49.44;101709.03;1672345;85;27344;-55
2023/09/25 08:30:27;;;;;;;2.35;1.25;;;;;;;26.59;49.27;101704.67;1668678;85;25473;-55
2023/09/25 08:32:53;;;;;;;6.17;2.17;;;;;;;26.77;48.77;101705.63;1675428;85;25507;-54
2023/09/25 08:35:21;;;;;;;2.60;1.50;;;;;;;26.93;48.28;101698.37;1681240;84;25395;-55
2023/09/25 08:37:48;;;;;;;5.25;3.47;;;;;;;27.10;48.17;101701.66;1684331;85;25638;-54
2023/09/25 08:40:17;;;;;;;7.62;3.75;;;;;;;27.35;47.77;101702.59;1685058;85;27400;-52
2023/09/25 08:42:46;;;;;;;5.33;3.12;;;;;;;27.67;47.26;101700.52;1684819;85;25424;-50
2023/09/25 08:45:15;;;;;;;1.87;1.20;;;;;;;27.92;46.56;101705.35;1684923;85;25560;-51
2023/09/25 08:47:42;;;;;;;;;;;;;;;28.10;45.42;101700.61;1687383;85;26043;-51
2023/09/25 08:50:11;;;;;;;19.20;17.32;;;;;;;28.20;44.95;101701.81;1685192;85;25419;-52
2023/09/25 08:52:37;;;;;;;4.17;1.60;;;;;;;28.42;44.70;101703.22;1685140;85;27917;-53
2023/09/25 08:55:08;;;;;;;2.65;1.67;;;;;;;28.60;43.94;101697.64;1684847;85;27226;-52
2023/09/25 08:57:35;;;;;;;5.53;1.60;;;;;;;28.68;44.10;101695.84;1684800;85;25421;-52
2023/09/25 09:00:26;;;;;;;1.95;1.30;;;;;;;29.05;44.01;101698.73;1684868;85;25551;-51
2023/09/25 09:02:34;;;;;;;2.95;1.45;;;;;;;29.28;43.04;101696.69;1674642;85;25477;-55
2023/09/25 09:05:00;;;;;;;3.98;1.20;;;;;;;29.42;41.99;101691.85;1661096;85;27325;-52
2023/09/25 09:07:28;;;;;;;2.33;1.22;;;;;;;29.53;42.38;101698.75;1684780;83;25760;-52
2023/09/25 09:09:57;;;;;;;1.35;1.10;;;;;;;29.63;41.61;101694.33;1684885;85;25591;-52
2023/09/25 09:12:23;;;;;;;1.87;1.05;;;;;;;29.68;40.40;101688.32;1660828;85;25672;-54
2023/09/25 09:14:50;;;;;;;4.25;1.25;;;;;;;29.70;41.11;101690.09;1684913;85;25411;-51
2023/09/25 09:17:16;;;;;;;1.35;1.02;;;;;;;29.78;40.81;101688.89;1684872;85;27413;-55
2023/09/25 09:19:54;;;;;;;1.92;1.27;;;;;;;29.90;40.30;101689.00;1684769;85;25863;-56
2023/09/25 09:22:22;;;;;;;2.85;0.93;;;;;;;30.04;40.38;101683.13;1684995;85;25653;-57
2023/09/25 09:24:52;;;;;;;3.45;2.25;;;;;;;30.29;40.20;101677.32;1684969;85;25928;-54
2023/09/25 09:27:24;;;;;;;2.50;1.32;;;;;;;30.41;39.17;101675.47;1661140;85;25599;-56
2023/09/25 09:29:52;;;;;;;1.42;0.90;;;;;;;30.47;39.31;101677.98;1683447;85;27313;-54
2023/09/25 09:32:19;;;;;;;56.95;54.15;;;;;;;30.71;38.59;101666.36;1684560;85;25811;-56
2023/09/25 09:34:48;;;;;;;59.40;56.42;;;;;;;30.69;38.10;101665.21;1661071;85;25548;-53
2023/09/25 09:37:18;;;;;;;53.40;50.75;;;;;;;30.61;37.68;101672.07;1684845;85;25484;-52
2023/09/25 09:39:52;;;;;;;56.30;53.23;;;;;;;30.75;37.81;101671.13;1684859;85;25378;-53
2023/09/25 09:42:20;;;;;;;56.42;53.60;;;;;;;29.90;37.73;101536.20;1684376;85;27271;-54
2023/09/25 09:44:48;;;;;;;53.40;50.70;;;;;;;30.83;37.59;101661.46;1684764;85;25703;-54
2023/09/25 09:47:20;;;;;;;52.95;50.30;;;;;;;30.85;37.28;101665.44;1684876;84;25539;-53
2023/09/25 09:49:50;;;;;;;56.25;53.28;;;;;;;29.75;37.42;101508.44;1660934;85;25937;-55
2023/09/25 09:52:20;;;;;;;56.08;53.35;;;;;;;30.90;37.46;101664.16;1684888;85;25499;-54
2023/09/25 09:54:50;;;;;;;57.50;54.50;;;;;;;31.05;37.11;101662.81;1684869;83;27935;-51
2023/09/25 09:57:21;;;;;;;60.23;57.03;;;;;;;31.10;37.16;101665.14;1660878;85;25382;-52
2023/09/25 09:59:49;;;;;;;56.85;54.05;;;;;;;31.33;37.18;101660.06;1684862;85;25457;-53
2023/09/25 10:02:17;;;;;;;56.70;53.80;;;;;;;31.51;36.85;101657.06;1684820;85;25328;-52
2023/09/25 10:04:45;;;;;;;68.57;64.07;;;;;;;31.64;36.59;101655.27;1684908;85;25392;-52
2023/09/25 10:07:13;;;;;;;54.77;51.68;;;;;;;31.83;36.49;101650.36;1684842;85;27244;-52
2023/09/25 10:10:06;;;;;;;52.43;49.70;;;;;;;30.56;36.03;101422.06;1684771;85;25646;-54
2023/09/25 10:12:48;;;;;;;56.63;53.78;;;;;;;31.31;36.00;101500.39;1684905;85;25492;-53
2023/09/25 10:15:27;;;;;;;57.45;54.35;;;;;;;32.03;34.69;101648.26;1684422;85;25971;-54
2023/09/25 10:17:56;;;;;;;55.98;53.23;;;;;;;31.79;35.17;101647.42;1684914;85;25331;-54
2023/09/25 10:20:45;;;;;;;54.83;51.95;;;;;;;31.96;35.40;101640.77;1684988;85;27195;-53
2023/09/25 10:23:21;;;;;;;55.45;52.58;;;;;;;32.08;34.93;101646.98;1685012;85;25496;-54
2023/09/25 10:26:03;;;;;;;57.13;53.90;;;;;;;32.12;34.55;101642.14;1685163;85;25588;-52
2023/09/25 10:28:35;;;;;;;54.67;51.98;;;;;;;32.31;34.74;101643.40;1685136;85;25473;-51
2023/09/25 10:31:08;;;;;;;53.87;51.18;;;;;;;32.48;34.49;101635.27;1684837;85;25354;-52
2023/09/25 10:33:38;;;;;;;54.85;52.15;;;;;;;32.53;34.02;101632.59;1676412;85;27202;-53
2023/09/25 10:36:06;;;;;;;54.83;51.85;;;;;;;32.69;33.85;101636.91;1661342;85;27256;-53
2023/09/25 10:38:36;;;;;;;55.63;52.78;;;;;;;32.57;33.41;101628.51;1674217;85;25530;-55
2023/09/25 10:41:07;;;;;;;56.58;53.78;;;;;;;32.44;33.63;101635.95;1667029;85;25542;-56
2023/09/25 10:43:36;;;;;;;56.83;54.13;;;;;;;32.19;33.38;101623.81;1667067;85;25493;-56
2023/09/25 10:46:04;;;;;;;56.42;53.50;;;;;;;32.10;33.79;101621.58;1667010;85;27216;-57
2023/09/25 10:48:33;;;;;;;54.20;51.33;;;;;;;32.13;33.88;101627.72;1666933;85;25582;-57
2023/09/25 10:51:01;;;;;;;56.25;53.38;;;;;;;32.27;34.07;101623.09;1646679;86;25350;-56
2023/09/25 10:53:28;;;;;;;54.58;51.88;;;;;;;32.51;34.47;101626.64;1670650;85;26311;-58
2023/09/25 10:55:55;;;;;;;52.98;50.48;;;;;;;32.74;34.29;101625.20;1674195;85;25562;-58
2023/09/25 10:58:22;;;;;;;54.67;51.77;;;;;;;32.14;33.90;101530.56;1667016;85;27272;-56
2023/09/25 11:00:50;;;;;;;55.58;52.58;;;;;;;32.07;33.49;101497.13;1674174;85;25543;-55
2023/09/25 11:03:19;;;;;;;55.58;52.88;;;;;;;33.07;33.19;101630.13;1669555;85;25392;-57
2023/09/25 11:05:48;;;;;;;56.77;53.98;;;;;;;33.03;32.86;101631.61;1672270;85;25439;-58
2023/09/25 11:08:16;;;;;;;56.15;53.02;;;;;;;33.09;32.96;101620.05;1646109;86;25528;-57
2023/09/25 11:10:45;;;;;;;;;;;;;;;33.06;32.66;101618.73;1659674;86;27260;-54
2023/09/25 11:13:12;;;;;;;26.65;25.27;;;;;;;32.81;32.37;101626.27;1657240;86;25410;-55
2023/09/25 11:15:41;;;;;;;40.55;38.40;;;;;;;32.78;32.63;101616.72;1643495;86;25492;-53
2023/09/25 11:18:10;;;;;;;74.00;69.37;;;;;;;32.45;31.80;101611.55;1674282;85;25572;-53
2023/09/25 11:20:43;;;;;;;55.38;52.58;;;;;;;31.92;32.33;101614.84;1674203;85;25408;-55
2023/09/25 11:23:14;;;;;;;2.87;1.40;;;;;;;31.78;33.24;101610.28;1669303;84;27211;-55
2023/09/25 11:25:46;;;;;;;3.08;1.20;;;;;;;32.07;33.01;101621.02;1674320;85;25523;-51
2023/09/25 11:28:18;;;;;;;3.05;1.25;;;;;;;31.64;32.16;101611.31;1662160;85;25604;-56
2023/09/25 11:30:49;;;;;;;3.47;1.17;;;;;;;31.12;32.63;101610.23;1674128;85;25375;-52
2023/09/25 11:33:20;;;;;;;1.55;1.40;;;;;;;30.84;33.73;101607.98;1669418;85;25336;-51
2023/09/25 11:35:52;;;;;;;7.25;1.55;;;;;;;30.68;33.64;101610.56;1672982;85;27794;-52